Time;durP1;ratioP1;P1;durP2;ratioP2;P2;SDS_P1;SDS_P2;PMS_P1;PMS_P2;Temp;Humidity;BMP_temperature;BMP_pressure;BME280_temperature;BME280_humidity;BME280_pressure;Samples;Min_cycle;Max_cycle;Signal;HPM_P1;HPM_P2
2021/08/29 00:01:17;;;;;;;13.10;7.13;;;16.10;60.60;;;;;;5093231;28;20470;-76
2021/08/29 00:03:43;;;;;;;14.05;7.20;;;16.10;61.00;;;;;;5093149;28;20382;-76
2021/08/29 00:06:08;;;;;;;13.52;8.00;;;16.10;61.50;;;;;;5092824;28;20404;-76
2021/08/29 00:08:34;;;;;;;16.05;7.50;;;16.10;61.50;;;;;;5093440;28;20408;-76
2021/08/29 00:10:59;;;;;;;16.90;7.45;;;16.10;62.30;;;;;;5094089;28;20430;-76
2021/08/29 00:13:25;;;;;;;17.80;8.30;;;16.10;61.80;;;;;;5094208;28;20897;-76
2021/08/29 00:15:51;;;;;;;12.65;7.90;;;16.00;62.20;;;;;;5088611;28;20490;-77
2021/08/29 00:18:17;;;;;;;15.00;7.90;;;16.10;63.80;;;;;;5083275;28;20406;-76
2021/08/29 00:20:44;;;;;;;10.67;7.30;;;16.10;64.00;;;;;;5074428;28;20383;-76
2021/08/29 00:23:10;;;;;;;13.30;7.45;;;16.10;62.10;;;;;;5079154;28;20890;-76
2021/08/29 00:25:35;;;;;;;14.52;7.60;;;16.10;62.10;;;;;;5093708;28;20445;-76
2021/08/29 00:28:01;;;;;;;12.10;6.68;;;16.10;63.20;;;;;;5081968;28;20463;-76
2021/08/29 00:30:27;;;;;;;16.15;8.00;;;16.00;63.10;;;;;;5055045;28;20379;-77
2021/08/29 00:32:52;;;;;;;17.43;7.73;;;16.00;64.30;;;;;;5075588;28;20478;-77
2021/08/29 00:35:18;;;;;;;21.17;8.23;;;16.00;65.00;;;;;;5091782;28;20400;-79
2021/08/29 00:37:44;;;;;;;20.58;8.73;;;16.00;64.60;;;;;;5083857;28;20390;-77
2021/08/29 00:40:10;;;;;;;17.53;8.50;;;15.90;65.10;;;;;;5084810;28;20384;-75
2021/08/29 00:42:35;;;;;;;17.33;8.60;;;15.90;65.50;;;;;;5073439;28;20906;-75
2021/08/29 00:45:01;;;;;;;17.83;8.23;;;15.90;66.10;;;;;;5074768;28;20384;-75
2021/08/29 00:47:29;;;;;;;18.02;8.57;;;15.90;65.30;;;;;;5095510;28;20412;-75
2021/08/29 00:49:55;;;;;;;23.45;9.02;;;15.90;67.00;;;;;;5098764;28;20390;-77
2021/08/29 00:52:21;;;;;;;18.57;8.60;;;15.90;67.60;;;;;;5096452;28;20393;-77
2021/08/29 00:54:46;;;;;;;14.27;8.13;;;15.90;66.20;;;;;;5097199;28;20390;-77
2021/08/29 00:57:12;;;;;;;18.13;8.60;;;15.80;66.60;;;;;;5096745;28;20880;-75
2021/08/29 00:59:42;;;;;;;19.15;8.13;;;15.70;67.00;;;;;;5094272;28;20408;-75
2021/08/29 01:02:11;;;;;;;16.33;8.45;;;15.70;67.40;;;;;;5092609;28;20385;-75
2021/08/29 01:05:07;;;;;;;12.50;8.00;;;15.70;67.60;;;;;;5092511;28;20473;-74
2021/08/29 01:07:35;;;;;;;15.20;8.90;;;15.60;68.70;;;;;;5092418;28;20878;-74
2021/08/29 01:10:06;;;;;;;21.58;8.65;;;15.60;68.70;;;;;;5092447;28;20381;-75
2021/08/29 01:12:33;;;;;;;15.77;8.50;;;15.60;69.40;;;;;;5092100;28;20419;-75
2021/08/29 01:15:02;;;;;;;17.73;9.40;;;15.50;70.20;;;;;;5092187;28;20756;-75
2021/08/29 01:17:31;;;;;;;16.53;9.20;;;15.50;70.50;;;;;;5092193;28;20388;-75
2021/08/29 01:20:40;;;;;;;15.23;9.45;;;15.50;71.70;;;;;;5094459;28;20478;-76
2021/08/29 01:23:07;;;;;;;16.55;10.07;;;15.40;71.90;;;;;;5094333;28;20389;-75
2021/08/29 01:25:37;;;;;;;16.40;9.27;;;15.50;72.40;;;;;;5093383;28;20398;-76
2021/08/29 01:28:33;;;;;;;16.23;9.50;;;15.50;72.70;;;;;;5081115;28;20441;-75
2021/08/29 01:30:59;;;;;;;21.40;10.20;;;15.40;71.90;;;;;;5071540;28;20371;-76
2021/08/29 01:33:25;;;;;;;18.45;9.70;;;15.40;72.90;;;;;;5079834;28;20393;-76
2021/08/29 01:35:52;;;;;;;22.27;10.10;;;15.40;73.90;;;;;;5085284;28;20807;-77
2021/08/29 01:38:18;;;;;;;20.77;9.30;;;15.60;72.50;;;;;;5071325;28;20391;-76
2021/08/29 01:40:44;;;;;;;20.77;8.50;;;15.60;71.70;;;;;;5084573;28;20443;-77
2021/08/29 01:43:10;;;;;;;21.40;9.45;;;15.60;71.70;;;;;;5091525;28;20386;-76
2021/08/29 01:45:36;;;;;;;24.60;10.07;;;15.60;70.90;;;;;;5091637;28;20408;-76
2021/08/29 01:48:02;;;;;;;23.77;10.00;;;15.60;71.90;;;;;;5090908;28;20863;-76
2021/08/29 01:50:27;;;;;;;18.80;10.20;;;15.60;72.20;;;;;;5090926;28;20393;-76
2021/08/29 01:52:53;;;;;;;15.43;9.60;;;15.60;71.80;;;;;;5091327;28;20464;-76
2021/08/29 01:55:19;;;;;;;23.60;10.67;;;15.50;71.10;;;;;;5090107;28;20443;-75
2021/08/29 01:57:44;;;;;;;19.20;9.93;;;15.60;71.70;;;;;;5091237;28;20374;-75
2021/08/29 02:00:10;;;;;;;20.42;10.75;;;15.60;71.90;;;;;;5091540;28;20385;-76
2021/08/29 02:02:36;;;;;;;25.55;10.32;;;15.50;72.00;;;;;;5091088;28;20386;-76
2021/08/29 02:05:01;;;;;;;19.92;9.68;;;15.50;71.70;;;;;;5091621;28;20386;-77
2021/08/29 02:07:41;;;;;;;27.02;10.07;;;15.50;72.50;;;;;;5091055;28;20485;-77
2021/08/29 02:10:12;;;;;;;18.42;9.73;;;15.50;72.90;;;;;;5090927;28;20385;-76
2021/08/29 02:12:53;;;;;;;23.15;10.18;;;15.50;73.10;;;;;;5091254;28;20744;-77
2021/08/29 02:15:31;;;;;;;20.77;10.43;;;15.50;74.00;;;;;;5090644;28;20390;-77
2021/08/29 02:17:58;;;;;;;15.75;9.68;;;15.50;73.20;;;;;;5091077;28;20385;-76
2021/08/29 02:20:25;;;;;;;17.52;9.10;;;15.50;72.90;;;;;;5091018;28;20424;-76
2021/08/29 02:22:52;;;;;;;21.63;9.57;;;15.50;73.40;;;;;;5091206;28;20874;-75
2021/08/29 02:25:18;;;;;;;20.90;10.27;;;15.50;73.20;;;;;;5091503;28;20747;-76
2021/08/29 02:27:44;;;;;;;22.55;10.57;;;15.50;73.00;;;;;;5082411;28;20387;-77
2021/08/29 02:30:10;;;;;;;25.20;10.90;;;15.50;73.10;;;;;;5085686;28;20446;-76
2021/08/29 02:32:38;;;;;;;18.48;10.13;;;15.50;74.10;;;;;;5090825;28;20385;-76
2021/08/29 02:35:05;;;;;;;23.42;11.10;;;15.50;74.40;;;;;;5090507;28;20427;-76
2021/08/29 02:37:32;;;;;;;19.02;10.43;;;15.50;74.00;;;;;;5070725;28;20390;-76
2021/08/29 02:39:58;;;;;;;20.85;11.05;;;15.50;73.10;;;;;;5070679;28;20659;-76
2021/08/29 02:42:27;;;;;;;26.90;11.10;;;15.50;73.90;;;;;;5070911;28;20470;-76
2021/08/29 02:44:53;;;;;;;20.98;10.23;;;15.50;73.10;;;;;;5098385;28;20374;-76
2021/08/29 02:47:19;;;;;;;23.90;10.52;;;15.50;73.40;;;;;;5098185;28;20430;-77
2021/08/29 02:49:48;;;;;;;24.10;10.80;;;15.60;73.30;;;;;;5097008;28;20461;-77
2021/08/29 02:52:18;;;;;;;21.17;10.70;;;15.50;72.90;;;;;;5073064;28;20386;-76
2021/08/29 02:54:45;;;;;;;19.70;10.23;;;15.60;72.70;;;;;;5092646;28;20374;-77
2021/08/29 02:57:13;;;;;;;17.50;9.85;;;15.60;72.80;;;;;;5090589;28;20773;-77
2021/08/29 02:59:39;;;;;;;24.63;10.02;;;15.60;72.80;;;;;;5091392;28;20382;-78
2021/08/29 03:02:09;;;;;;;17.10;9.20;;;15.50;72.90;;;;;;5091361;28;20393;-77
2021/08/29 03:04:35;;;;;;;18.75;9.63;;;15.60;73.50;;;;;;5091252;28;20385;-77
2021/08/29 03:07:02;;;;;;;21.55;10.90;;;15.60;71.60;;;;;;5091538;28;20397;-76
2021/08/29 03:09:33;;;;;;;23.70;10.20;;;15.60;71.80;;;;;;5095025;28;20406;-76
2021/08/29 03:12:05;;;;;;;20.20;10.13;;;15.60;71.30;;;;;;5076474;28;20398;-76
2021/08/29 03:14:33;;;;;;;19.67;10.35;;;15.60;71.80;;;;;;5094827;28;20390;-77
2021/08/29 03:16:59;;;;;;;24.75;10.02;;;15.60;72.60;;;;;;5096219;28;20378;-77
2021/08/29 03:19:25;;;;;;;27.35;10.75;;;15.60;71.10;;;;;;5094478;28;20478;-77
2021/08/29 03:21:52;;;;;;;20.52;10.32;;;15.60;71.60;;;;;;5094388;28;20378;-77
2021/08/29 03:24:17;;;;;;;23.25;10.00;;;15.60;72.60;;;;;;5094598;28;20417;-77
2021/08/29 03:26:43;;;;;;;29.80;11.20;;;15.60;71.50;;;;;;5094615;28;20437;-77
2021/08/29 03:29:09;;;;;;;21.53;10.07;;;15.60;72.90;;;;;;5074309;28;20379;-77
2021/08/29 03:31:35;;;;;;;25.85;10.73;;;15.60;73.60;;;;;;5075132;28;20383;-77
2021/08/29 03:34:04;;;;;;;23.08;10.02;;;15.50;76.80;;;;;;5088323;28;20384;-77
2021/08/29 03:36:32;;;;;;;22.08;10.85;;;15.40;79.60;;;;;;5088222;28;20388;-77
2021/08/29 03:38:59;;;;;;;20.63;10.80;;;15.40;82.30;;;;;;5083028;28;20390;-76
2021/08/29 03:41:25;;;;;;;25.38;12.02;;;15.40;84.80;;;;;;5075375;28;20387;-77
2021/08/29 03:43:50;;;;;;;26.58;11.23;;;15.30;86.10;;;;;;5074194;28;20380;-76
2021/08/29 03:46:16;;;;;;;25.33;11.40;;;15.30;87.20;;;;;;5055827;28;20403;-77
2021/08/29 03:48:44;;;;;;;29.20;13.07;;;15.30;88.80;;;;;;5074220;28;20875;-77
2021/08/29 03:51:12;;;;;;;24.23;13.50;;;15.30;88.80;;;;;;5075060;28;20403;-77
2021/08/29 03:53:39;;;;;;;25.70;13.13;;;15.30;89.30;;;;;;5087364;28;20429;-77
2021/08/29 03:56:06;;;;;;;26.33;13.40;;;15.30;90.00;;;;;;5097114;28;20443;-77
2021/08/29 03:58:34;;;;;;;29.40;13.97;;;15.30;89.70;;;;;;5097319;28;20751;-77
2021/08/29 04:01:00;;;;;;;22.75;13.30;;;15.30;89.40;;;;;;5100274;28;20386;-77
2021/08/29 04:03:26;;;;;;;23.10;12.33;;;15.30;89.20;;;;;;5103363;28;20411;-77
2021/08/29 04:05:53;;;;;;;27.15;12.45;;;15.30;89.50;;;;;;5096109;28;20450;-77
2021/08/29 04:08:22;;;;;;;26.85;12.50;;;15.30;89.70;;;;;;5101270;28;20382;-77
2021/08/29 04:10:48;;;;;;;22.90;11.65;;;15.30;89.20;;;;;;5100838;28;20374;-76
2021/08/29 04:13:15;;;;;;;21.58;11.68;;;15.30;88.00;;;;;;5096040;28;20386;-76
2021/08/29 04:15:41;;;;;;;21.98;11.50;;;15.30;88.80;;;;;;5075456;28;20460;-76
2021/08/29 04:18:09;;;;;;;27.35;11.50;;;15.30;87.70;;;;;;5092513;28;20456;-76
2021/08/29 04:20:34;;;;;;;25.23;11.20;;;15.30;87.50;;;;;;5092479;28;20405;-76
2021/08/29 04:23:00;;;;;;;25.15;12.30;;;15.40;87.50;;;;;;5093453;28;20389;-77
2021/08/29 04:25:26;;;;;;;29.52;11.80;;;15.40;86.20;;;;;;5093243;28;20386;-77
2021/08/29 04:27:52;;;;;;;24.85;12.43;;;15.40;86.10;;;;;;5083792;28;20380;-75
2021/08/29 04:30:18;;;;;;;26.07;11.73;;;15.50;86.10;;;;;;5073054;28;20431;-75
2021/08/29 04:32:50;;;;;;;37.00;12.85;;;15.50;84.50;;;;;;5074675;28;20409;-76
2021/08/29 04:35:15;;;;;;;28.02;12.43;;;15.50;85.70;;;;;;5090909;28;20936;-76
2021/08/29 04:37:41;;;;;;;31.90;11.43;;;15.60;84.00;;;;;;5072987;28;20392;-76
2021/08/29 04:40:07;;;;;;;34.47;12.50;;;15.60;82.80;;;;;;5080447;28;20455;-75
2021/08/29 04:42:33;;;;;;;24.13;11.23;;;15.60;80.80;;;;;;5074791;28;20384;-75
2021/08/29 04:44:58;;;;;;;27.65;13.05;;;15.60;80.70;;;;;;5092711;28;20374;-76
2021/08/29 04:47:24;;;;;;;24.77;12.60;;;15.60;81.00;;;;;;5092298;28;20397;-76
2021/08/29 04:49:49;;;;;;;40.22;13.75;;;15.60;82.60;;;;;;5092341;28;20485;-76
2021/08/29 04:52:15;;;;;;;26.50;13.27;;;15.60;81.20;;;;;;5092623;28;20413;-76
2021/08/29 04:54:41;;;;;;;30.70;13.87;;;15.60;81.10;;;;;;5092616;28;20378;-75
2021/08/29 04:57:06;;;;;;;30.67;13.30;;;15.60;80.30;;;;;;5074745;28;20386;-76
2021/08/29 04:59:32;;;;;;;25.35;12.05;;;15.60;81.30;;;;;;5092616;28;20386;-75
2021/08/29 05:01:57;;;;;;;26.17;11.85;;;15.60;81.60;;;;;;5092347;28;20523;-74
2021/08/29 05:04:23;;;;;;;27.17;11.38;;;15.60;81.20;;;;;;5092114;28;20863;-75
2021/08/29 05:06:48;;;;;;;25.17;11.53;;;15.60;79.70;;;;;;5074228;28;20413;-75
2021/08/29 05:09:14;;;;;;;30.43;13.20;;;15.60;79.00;;;;;;5092565;28;20378;-75
2021/08/29 05:11:39;;;;;;;32.03;12.33;;;15.60;80.30;;;;;;5092687;28;20385;-75
2021/08/29 05:14:05;;;;;;;25.52;13.18;;;15.70;81.00;;;;;;5092236;28;20423;-75
2021/08/29 05:16:31;;;;;;;26.88;12.32;;;15.70;80.20;;;;;;5092134;28;20390;-75
2021/08/29 05:18:56;;;;;;;29.30;12.57;;;15.70;79.20;;;;;;5092197;28;20389;-75
2021/08/29 05:21:22;;;;;;;25.70;12.60;;;15.70;77.80;;;;;;5092774;28;20420;-76
2021/08/29 05:23:47;;;;;;;23.03;13.10;;;15.70;78.30;;;;;;5092773;28;20473;-75
2021/08/29 05:26:13;;;;;;;32.15;15.05;;;15.70;78.50;;;;;;5093407;28;20405;-75
2021/08/29 05:28:38;;;;;;;32.50;13.50;;;15.80;78.30;;;;;;5076257;28;20433;-76
2021/08/29 05:31:04;;;;;;;40.27;14.00;;;15.80;76.10;;;;;;5083977;28;20394;-75
2021/08/29 05:33:29;;;;;;;33.60;13.40;;;15.80;76.50;;;;;;5099126;28;20847;-75
2021/08/29 05:35:55;;;;;;;31.67;13.63;;;15.80;77.30;;;;;;5101621;28;20471;-75
2021/08/29 05:38:21;;;;;;;27.75;13.95;;;15.80;76.10;;;;;;5103859;28;20389;-75
2021/08/29 05:40:46;;;;;;;30.23;14.40;;;15.80;77.50;;;;;;5102371;28;20386;-75
2021/08/29 05:43:12;;;;;;;30.25;13.55;;;15.80;77.90;;;;;;5096337;28;20438;-76
2021/08/29 05:45:37;;;;;;;29.25;13.48;;;15.80;76.70;;;;;;5093842;28;20448;-76
2021/08/29 05:48:03;;;;;;;36.90;12.93;;;15.80;76.00;;;;;;5092074;28;20476;-76
2021/08/29 05:50:29;;;;;;;40.50;14.03;;;15.80;76.30;;;;;;5092098;28;20374;-76
2021/08/29 05:52:54;;;;;;;38.13;13.90;;;15.80;77.20;;;;;;5091413;28;20416;-76
2021/08/29 05:55:20;;;;;;;28.47;13.77;;;15.80;76.70;;;;;;5091422;28;20387;-76
2021/08/29 05:57:46;;;;;;;32.72;14.02;;;15.80;76.50;;;;;;5091198;28;20385;-76
2021/08/29 06:00:12;;;;;;;36.78;15.20;;;15.90;76.10;;;;;;5091026;28;20386;-76
2021/08/29 06:02:37;;;;;;;30.20;12.85;;;15.90;74.90;;;;;;5073640;28;20802;-76
2021/08/29 06:05:03;;;;;;;30.80;13.43;;;15.90;74.50;;;;;;5072697;28;20394;-76
2021/08/29 06:07:29;;;;;;;31.77;14.40;;;15.90;74.90;;;;;;5090737;28;20855;-75
2021/08/29 06:09:55;;;;;;;39.23;13.70;;;16.00;74.10;;;;;;5072595;28;20384;-75
2021/08/29 06:12:20;;;;;;;34.07;13.73;;;15.90;73.30;;;;;;5072501;28;20425;-75
2021/08/29 06:14:46;;;;;;;28.23;12.57;;;16.00;74.70;;;;;;5089891;28;20377;-76
2021/08/29 06:17:11;;;;;;;27.25;11.60;;;16.00;74.30;;;;;;5090887;28;20390;-76
2021/08/29 06:19:37;;;;;;;26.10;12.40;;;16.00;73.20;;;;;;5090500;28;20833;-76
2021/08/29 06:22:03;;;;;;;26.42;13.10;;;16.00;73.00;;;;;;5072415;28;20808;-77
2021/08/29 06:24:29;;;;;;;29.42;11.68;;;16.00;72.40;;;;;;5090750;28;20390;-76
2021/08/29 06:26:54;;;;;;;29.95;12.35;;;16.00;72.60;;;;;;5071401;28;20397;-75
2021/08/29 06:29:20;;;;;;;29.58;11.90;;;16.10;72.30;;;;;;5090342;28;20436;-75
2021/08/29 06:31:46;;;;;;;24.50;11.75;;;16.10;71.10;;;;;;5090703;28;20854;-75
2021/08/29 06:34:11;;;;;;;25.90;12.07;;;16.10;69.90;;;;;;5090815;28;20793;-76
2021/08/29 06:36:37;;;;;;;28.30;11.90;;;16.10;70.60;;;;;;5090671;28;20408;-76
2021/08/29 06:39:03;;;;;;;28.17;12.70;;;16.20;69.90;;;;;;5090380;28;20422;-76
2021/08/29 06:41:28;;;;;;;24.00;11.60;;;16.30;69.50;;;;;;5071934;28;20771;-75
2021/08/29 06:43:54;;;;;;;27.70;13.50;;;16.30;66.60;;;;;;5089987;28;20440;-75
2021/08/29 06:46:20;;;;;;;35.33;13.03;;;16.40;67.20;;;;;;5090653;28;20484;-75
2021/08/29 06:48:46;;;;;;;24.70;11.80;;;16.40;66.70;;;;;;5090425;28;20378;-75
2021/08/29 06:51:11;;;;;;;27.48;12.15;;;16.40;64.50;;;;;;5090771;28;20440;-75
2021/08/29 06:53:37;;;;;;;28.13;13.00;;;16.40;65.20;;;;;;5091303;28;20397;-75
2021/08/29 06:56:03;;;;;;;24.87;12.50;;;16.40;65.10;;;;;;5090612;28;20404;-76
2021/08/29 06:58:28;;;;;;;21.67;12.50;;;16.40;65.80;;;;;;5069643;28;20403;-76
2021/08/29 07:00:54;;;;;;;32.75;16.33;;;16.40;65.10;;;;;;5071482;28;20384;-76
2021/08/29 07:03:19;;;;;;;28.20;14.43;;;16.40;64.80;;;;;;5073696;28;20391;-76
2021/08/29 07:05:45;;;;;;;26.53;10.20;;;16.40;65.10;;;;;;5072532;28;20404;-75
2021/08/29 07:08:10;;;;;;;24.80;12.03;;;16.40;65.60;;;;;;5073252;28;20418;-76
2021/08/29 07:10:36;;;;;;;45.33;22.50;;;16.40;65.90;;;;;;5075226;28;20371;-76
2021/08/29 07:13:03;;;;;;;28.38;12.32;;;16.50;65.50;;;;;;5087598;28;20416;-75
2021/08/29 07:15:30;;;;;;;24.40;12.90;;;16.60;64.20;;;;;;5082005;28;20377;-76
2021/08/29 07:17:55;;;;;;;28.50;11.90;;;16.70;63.10;;;;;;5096821;28;20408;-73
2021/08/29 07:20:21;;;;;;;27.35;11.50;;;16.80;62.30;;;;;;5101172;28;20801;-75
2021/08/29 07:22:46;;;;;;;33.22;15.02;;;16.80;59.00;;;;;;5102466;28;20393;-76
2021/08/29 07:25:12;;;;;;;34.58;14.25;;;16.90;60.30;;;;;;5093173;28;20743;-74
2021/08/29 07:27:38;;;;;;;31.80;12.70;;;16.80;60.00;;;;;;5082585;28;20423;-77
2021/08/29 07:30:04;;;;;;;30.50;11.30;;;16.80;64.50;;;;;;5071106;28;20394;-76
2021/08/29 07:32:29;;;;;;;30.10;13.23;;;16.20;82.00;;;;;;5072904;28;20837;-76
2021/08/29 07:34:55;;;;;;;33.70;14.03;;;15.80;93.20;;;;;;5091563;28;20766;-77
2021/08/29 07:37:22;;;;;;;37.93;13.90;;;15.60;96.10;;;;;;5090025;28;20390;-75
2021/08/29 07:39:49;;;;;;;33.97;14.15;;;15.60;97.10;;;;;;5092575;28;20727;-75
2021/08/29 07:42:14;;;;;;;35.50;13.85;;;15.50;97.40;;;;;;5090992;28;20394;-76
2021/08/29 07:44:40;;;;;;;39.43;13.13;;;15.50;99.90;;;;;;5090500;28;20473;-76
2021/08/29 07:47:05;;;;;;;42.50;15.00;;;15.40;99.90;;;;;;5071750;28;20406;-76
2021/08/29 07:49:31;;;;;;;33.20;13.23;;;15.30;99.90;;;;;;5089974;28;20385;-75
2021/08/29 07:51:56;;;;;;;40.27;15.47;;;15.20;99.90;;;;;;5091057;28;20418;-75
2021/08/29 07:54:22;;;;;;;39.55;15.30;;;15.20;99.90;;;;;;5091761;28;20735;-76
2021/08/29 07:56:47;;;;;;;38.13;16.13;;;15.20;99.90;;;;;;5093132;28;20872;-76
2021/08/29 07:59:13;;;;;;;38.17;14.37;;;15.30;99.90;;;;;;5093045;28;20888;-76
2021/08/29 08:01:39;;;;;;;36.47;14.53;;;15.30;99.90;;;;;;5093244;28;20746;-75
2021/08/29 08:04:05;;;;;;;37.47;13.63;;;15.30;99.90;;;;;;5093315;28;20431;-75
2021/08/29 08:06:30;;;;;;;33.42;13.52;;;15.30;99.90;;;;;;5092903;28;20406;-76
2021/08/29 08:08:56;;;;;;;41.70;13.82;;;15.40;99.90;;;;;;5092296;28;20463;-75
2021/08/29 08:11:22;;;;;;;35.47;14.00;;;15.50;99.90;;;;;;5092862;28;20881;-75
2021/08/29 08:13:48;;;;;;;27.08;12.27;;;15.50;99.90;;;;;;5092817;28;20398;-75
2021/08/29 08:16:13;;;;;;;35.10;13.18;;;15.50;99.90;;;;;;5092636;28;20890;-75
2021/08/29 08:18:39;;;;;;;28.42;13.70;;;15.60;99.90;;;;;;5093342;28;20451;-75
2021/08/29 08:21:05;;;;;;;39.47;12.80;;;15.70;99.90;;;;;;5093913;28;20378;-75
2021/08/29 08:23:30;;;;;;;31.73;12.55;;;15.70;99.90;;;;;;5092747;28;20455;-76
2021/08/29 08:25:56;;;;;;;27.90;12.98;;;15.70;99.90;;;;;;5092529;28;20463;-75
2021/08/29 08:28:22;;;;;;;30.38;13.52;;;15.60;99.90;;;;;;5078681;28;20566;-75
2021/08/29 08:30:47;;;;;;;27.20;12.45;;;15.70;99.90;;;;;;5072370;28;20387;-76
2021/08/29 08:33:13;;;;;;;31.07;13.57;;;15.60;99.90;;;;;;5072797;28;20401;-75
2021/08/29 08:35:39;;;;;;;25.33;12.30;;;15.50;99.90;;;;;;5094519;28;20393;-76
2021/08/29 08:38:05;;;;;;;28.40;11.73;;;15.50;99.90;;;;;;5077547;28;20389;-75
2021/08/29 08:40:39;;;;;;;18.77;9.77;;;15.40;99.90;;;;;;5090135;28;20789;-77
2021/08/29 08:43:05;;;;;;;19.90;7.68;;;15.20;99.90;;;;;;5085968;28;20366;-75
2021/08/29 08:45:31;;;;;;;13.50;7.47;;;15.00;99.90;;;;;;5091531;28;20431;-76
2021/08/29 08:47:59;;;;;;;13.65;7.10;;;15.00;99.90;;;;;;5092475;28;20386;-76
2021/08/29 08:50:26;;;;;;;10.87;6.53;;;15.10;99.90;;;;;;5092519;28;20600;-76
2021/08/29 08:52:56;;;;;;;16.50;7.40;;;15.10;99.90;;;;;;5090672;28;20381;-77
2021/08/29 08:55:22;;;;;;;19.52;7.05;;;15.30;99.90;;;;;;5089499;28;20394;-76
2021/08/29 08:57:48;;;;;;;15.60;7.03;;;15.40;99.90;;;;;;5091154;28;20390;-76
2021/08/29 09:00:14;;;;;;;11.80;6.88;;;15.50;98.70;;;;;;5091916;28;20642;-75
2021/08/29 09:02:41;;;;;;;9.52;5.80;;;15.50;94.00;;;;;;5092121;28;20732;-75
2021/08/29 09:05:09;;;;;;;13.43;7.10;;;15.40;93.00;;;;;;5091702;28;20470;-75
2021/08/29 09:07:35;;;;;;;13.70;6.40;;;15.40;97.60;;;;;;5091658;28;20871;-75
2021/08/29 09:10:00;;;;;;;20.35;8.48;;;15.50;95.30;;;;;;5092002;28;20483;-75
2021/08/29 09:12:26;;;;;;;25.13;9.20;;;15.50;98.10;;;;;;5091241;28;20430;-75
2021/08/29 09:14:57;;;;;;;24.57;9.93;;;15.50;96.60;;;;;;5090982;28;20898;-76
2021/08/29 09:17:30;;;;;;;31.92;10.82;;;15.40;98.20;;;;;;5090453;28;20454;-75
2021/08/29 09:20:15;;;;;;;25.88;10.32;;;15.50;99.90;;;;;;5091484;28;20890;-76
2021/08/29 09:22:41;;;;;;;30.55;10.35;;;15.40;99.90;;;;;;5091749;28;20390;-74
2021/08/29 09:25:16;;;;;;;28.48;12.73;;;15.30;99.90;;;;;;5084392;28;20730;-75
2021/08/29 09:27:44;;;;;;;34.00;13.65;;;15.20;99.90;;;;;;5082488;28;20399;-76
2021/08/29 09:30:11;;;;;;;29.42;13.50;;;15.20;99.90;;;;;;5071301;28;20888;-75
2021/08/29 09:32:46;;;;;;;22.20;10.20;;;15.20;99.90;;;;;;5083038;28;20447;-76
2021/08/29 09:35:12;;;;;;;24.35;11.60;;;15.10;99.90;;;;;;5091801;28;20853;-75
2021/08/29 09:37:38;;;;;;;21.65;12.43;;;15.10;99.90;;;;;;5091270;28;20431;-76
2021/08/29 09:40:24;;;;;;;19.33;9.40;;;15.20;99.90;;;;;;5090625;28;20406;-75
2021/08/29 09:42:52;;;;;;;20.10;10.52;;;15.20;99.90;;;;;;5090737;28;20451;-75
2021/08/29 09:45:29;;;;;;;21.27;10.90;;;15.30;99.90;;;;;;5090926;28;20402;-76
2021/08/29 09:48:02;;;;;;;20.60;10.80;;;15.40;99.90;;;;;;5090805;28;20416;-75
2021/08/29 09:50:29;;;;;;;22.80;9.80;;;15.50;99.90;;;;;;5090848;28;20711;-75
2021/08/29 09:53:06;;;;;;;24.50;9.03;;;15.50;99.90;;;;;;5090696;28;20390;-76
2021/08/29 09:55:39;;;;;;;14.75;8.60;;;15.60;99.90;;;;;;5091006;28;20372;-76
2021/08/29 09:58:31;;;;;;;16.40;8.65;;;15.60;99.90;;;;;;5090669;28;20394;-77
2021/08/29 10:01:11;;;;;;;10.98;7.45;;;15.50;99.90;;;;;;5072060;28;20397;-75
2021/08/29 10:03:38;;;;;;;14.80;8.30;;;15.50;99.90;;;;;;5091264;28;20867;-76
2021/08/29 10:06:25;;;;;;;17.27;9.02;;;15.50;99.90;;;;;;5072435;28;20912;-76
2021/08/29 10:08:59;;;;;;;15.27;8.35;;;15.60;99.90;;;;;;5090974;28;20508;-77
2021/08/29 10:11:27;;;;;;;14.75;8.15;;;15.50;99.90;;;;;;5090742;28;20390;-75
2021/08/29 10:13:55;;;;;;;11.30;7.35;;;15.50;99.90;;;;;;5090583;28;20405;-75
2021/08/29 10:16:22;;;;;;;15.27;7.15;;;15.40;99.90;;;;;;5090845;28;20386;-76
2021/08/29 10:18:53;;;;;;;8.60;5.85;;;15.30;99.90;;;;;;5076789;28;20767;-76
2021/08/29 10:21:23;;;;;;;11.63;6.00;;;15.30;99.90;;;;;;5097996;28;20501;-75
2021/08/29 10:23:51;;;;;;;14.82;7.00;;;15.30;99.90;;;;;;5093544;28;20390;-75
2021/08/29 10:26:19;;;;;;;13.20;6.65;;;15.40;99.90;;;;;;5091504;28;20413;-76
2021/08/29 10:28:52;;;;;;;16.02;8.30;;;15.40;99.90;;;;;;5082741;28;20389;-74
2021/08/29 10:31:22;;;;;;;13.68;6.40;;;15.30;99.90;;;;;;5092196;28;20743;-76
2021/08/29 10:33:49;;;;;;;16.58;7.00;;;15.20;99.90;;;;;;5093559;28;20382;-76
2021/08/29 10:36:20;;;;;;;18.73;7.78;;;15.20;99.90;;;;;;5091524;28;20760;-76
2021/08/29 10:38:47;;;;;;;17.90;9.00;;;15.30;99.90;;;;;;5093094;28;20404;-77
2021/08/29 10:41:16;;;;;;;20.63;10.40;;;15.30;99.90;;;;;;5078176;28;20398;-76
2021/08/29 10:43:43;;;;;;;23.63;10.70;;;15.30;99.90;;;;;;5092110;28;20388;-75
2021/08/29 10:46:10;;;;;;;18.80;10.60;;;15.30;99.90;;;;;;5091464;28;20462;-76
2021/08/29 10:48:42;;;;;;;15.45;10.27;;;15.30;99.90;;;;;;5091709;28;20397;-76
2021/08/29 10:51:10;;;;;;;15.43;9.77;;;15.40;99.90;;;;;;5090310;28;20374;-76
2021/08/29 10:53:39;;;;;;;18.52;10.45;;;15.30;99.90;;;;;;5089732;28;20390;-76
2021/08/29 10:56:14;;;;;;;15.27;10.63;;;15.30;99.90;;;;;;5089617;28;20455;-75
2021/08/29 10:58:40;;;;;;;17.90;11.10;;;15.30;99.90;;;;;;5089894;28;20408;-76
2021/08/29 11:01:35;;;;;;;16.58;12.13;;;15.30;99.90;;;;;;5090209;28;20394;-76
2021/08/29 11:04:18;;;;;;;12.05;9.45;;;15.40;99.90;;;;;;5091124;28;20869;-76
2021/08/29 11:06:45;;;;;;;14.68;10.43;;;15.40;99.90;;;;;;5073884;28;20417;-77
2021/08/29 11:09:36;;;;;;;15.30;11.35;;;15.40;99.90;;;;;;5092115;28;20897;-75
2021/08/29 11:12:26;;;;;;;14.50;10.35;;;15.40;99.90;;;;;;5090914;28;20458;-76
2021/08/29 11:14:54;;;;;;;17.40;11.45;;;15.40;99.90;;;;;;5082503;28;20429;-75
2021/08/29 11:17:24;;;;;;;19.75;11.50;;;15.50;99.90;;;;;;5089816;28;20447;-76
2021/08/29 11:19:52;;;;;;;19.80;12.47;;;15.50;99.90;;;;;;5081417;28;20591;-76
2021/08/29 11:22:22;;;;;;;21.83;12.25;;;15.60;99.90;;;;;;5090114;28;20413;-75
2021/08/29 11:25:09;;;;;;;26.00;14.52;;;15.60;99.90;;;;;;5071965;28;20405;-76
2021/08/29 11:27:38;;;;;;;25.27;13.80;;;15.60;99.90;;;;;;5088198;28;20408;-75
2021/08/29 11:30:27;;;;;;;19.10;14.07;;;15.70;99.90;;;;;;5093228;28;20488;-76
2021/08/29 11:33:00;;;;;;;28.40;16.83;;;15.70;99.90;;;;;;5060317;28;20728;-75
2021/08/29 11:35:26;;;;;;;26.98;16.00;;;15.70;99.90;;;;;;5093403;28;20485;-75
2021/08/29 11:38:17;;;;;;;27.03;16.40;;;15.70;99.90;;;;;;5093489;28;20413;-76
2021/08/29 11:41:06;;;;;;;32.17;17.75;;;15.70;99.90;;;;;;5075956;28;20398;-76
2021/08/29 11:43:37;;;;;;;26.33;15.27;;;15.70;99.90;;;;;;5093010;28;20393;-74
2021/08/29 11:46:22;;;;;;;27.27;17.05;;;15.70;99.90;;;;;;5093054;28;20492;-75
2021/08/29 11:49:03;;;;;;;25.43;16.03;;;15.70;99.90;;;;;;5092730;28;20809;-75
2021/08/29 11:51:37;;;;;;;25.15;16.77;;;15.70;99.90;;;;;;5092810;28;20487;-76
2021/08/29 11:54:05;;;;;;;31.92;17.83;;;15.80;99.90;;;;;;5093463;28;20456;-75
2021/08/29 11:56:33;;;;;;;26.77;16.50;;;15.80;99.90;;;;;;5092844;28;20443;-76
2021/08/29 11:59:01;;;;;;;28.17;17.38;;;15.80;99.90;;;;;;5093004;28;20425;-76
2021/08/29 12:01:28;;;;;;;30.83;17.17;;;15.80;99.90;;;;;;5093598;28;20458;-76
2021/08/29 12:03:59;;;;;;;30.52;18.58;;;15.80;99.90;;;;;;5093560;28;20382;-75
2021/08/29 12:06:43;;;;;;;33.47;19.38;;;15.80;99.90;;;;;;5092914;28;20406;-75
2021/08/29 12:09:31;;;;;;;31.60;18.88;;;15.90;99.90;;;;;;5093611;28;20378;-76
2021/08/29 12:11:58;;;;;;;36.13;18.77;;;15.90;99.90;;;;;;5093453;28;20458;-77
2021/08/29 12:14:28;;;;;;;31.52;17.52;;;16.00;99.90;;;;;;5093946;28;20451;-75
2021/08/29 12:16:56;;;;;;;26.48;16.20;;;16.00;99.90;;;;;;5094167;28;20383;-76
2021/08/29 12:19:26;;;;;;;28.90;16.42;;;16.00;99.90;;;;;;5093946;28;20464;-76
2021/08/29 12:21:52;;;;;;;23.85;15.68;;;16.10;99.90;;;;;;5090364;28;20481;-75
2021/08/29 12:24:27;;;;;;;24.30;15.20;;;16.20;99.90;;;;;;5091039;28;20451;-75
2021/08/29 12:27:08;;;;;;;24.88;13.90;;;16.30;99.90;;;;;;5084476;28;20411;-76
2021/08/29 12:29:48;;;;;;;23.77;13.60;;;16.30;99.90;;;;;;5092829;28;20380;-76
2021/08/29 12:32:17;;;;;;;23.27;12.65;;;16.50;99.90;;;;;;5092833;28;20370;-75
2021/08/29 12:34:51;;;;;;;20.15;12.07;;;16.70;97.10;;;;;;5075715;28;20502;-75
2021/08/29 12:37:16;;;;;;;18.98;11.77;;;16.90;94.70;;;;;;5092758;28;20383;-75